createdAt,value
2023-02-16T00:01:59.521Z,29.05
2023-02-16T00:04:29.364Z,27.33
2023-02-16T00:06:57.371Z,27.85
2023-02-16T00:09:25.235Z,28.58
2023-02-16T00:12:11.677Z,28.38
2023-02-16T00:14:39.913Z,26.83
2023-02-16T00:17:07.134Z,28.30
2023-02-16T00:19:39.162Z,27.05
2023-02-16T00:22:07.254Z,29.27
2023-02-16T00:24:34.121Z,27.83
2023-02-16T00:27:01.231Z,29.30
2023-02-16T00:29:34.004Z,29.23
2023-02-16T00:32:02.915Z,29.58
2023-02-16T00:34:38.828Z,28.52
2023-02-16T00:37:11.304Z,29.85
2023-02-16T00:39:39.338Z,27.38
2023-02-16T00:42:13.478Z,27.98
2023-02-16T00:44:49.000Z,30.02
2023-02-16T00:47:21.567Z,30.52
2023-02-16T00:49:52.862Z,28.77
2023-02-16T00:52:36.013Z,28.80
2023-02-16T00:55:06.483Z,27.48
2023-02-16T00:57:38.519Z,29.33
2023-02-16T01:00:23.839Z,28.25
2023-02-16T01:02:53.329Z,28.38
2023-02-16T01:05:20.254Z,28.92
2023-02-16T01:08:06.000Z,28.50
2023-02-16T01:10:51.628Z,29.23
2023-02-16T01:13:18.741Z,28.83
2023-02-16T01:15:45.886Z,28.00
2023-02-16T01:18:14.986Z,28.20
2023-02-16T01:20:41.856Z,28.42
2023-02-16T01:23:09.131Z,28.00
2023-02-16T01:25:39.631Z,28.58
2023-02-16T01:28:24.756Z,29.75
2023-02-16T01:30:53.225Z,28.55
2023-02-16T01:33:21.035Z,26.30
2023-02-16T01:35:48.424Z,27.70
2023-02-16T01:38:19.270Z,28.60
2023-02-16T01:41:07.486Z,28.83
2023-02-16T01:43:50.951Z,26.65
2023-02-16T01:46:23.821Z,27.63
2023-02-16T01:48:50.963Z,29.17
2023-02-16T01:51:26.885Z,27.70
2023-02-16T01:54:31.110Z,28.23
2023-02-16T01:57:28.708Z,27.83
2023-02-16T01:59:55.465Z,27.75
2023-02-16T02:02:35.689Z,27.90
2023-02-16T02:05:36.960Z,28.73
2023-02-16T02:08:17.742Z,28.20
2023-02-16T02:11:05.702Z,26.52
2023-02-16T02:13:57.225Z,25.00
2023-02-16T02:16:26.077Z,25.98
2023-02-16T02:18:52.996Z,27.90
2023-02-16T02:22:15.845Z,25.92
2023-02-16T02:25:05.336Z,26.77
2023-02-16T02:27:49.672Z,25.08
2023-02-16T02:30:35.417Z,26.25
2023-02-16T02:33:12.083Z,26.73
2023-02-16T02:36:02.190Z,27.25
2023-02-16T02:38:37.973Z,26.13
2023-02-16T02:41:09.159Z,27.70
2023-02-16T02:43:53.782Z,27.70
2023-02-16T02:46:35.310Z,27.83
2023-02-16T02:49:02.333Z,26.70
2023-02-16T02:51:29.180Z,27.90
2023-02-16T02:54:28.398Z,26.83
2023-02-16T02:57:35.599Z,28.35
2023-02-16T03:00:34.092Z,26.35
2023-02-16T03:03:07.904Z,26.30
2023-02-16T03:05:37.333Z,27.70
2023-02-16T03:08:14.402Z,26.65
2023-02-16T03:11:12.785Z,28.45
2023-02-16T03:13:47.919Z,27.15
2023-02-16T03:16:21.760Z,28.15
2023-02-16T03:19:07.051Z,26.10
2023-02-16T03:21:54.033Z,28.40
2023-02-16T03:24:48.693Z,28.40
2023-02-16T03:27:39.280Z,28.25
2023-02-16T03:30:07.876Z,27.60
2023-02-16T03:32:35.226Z,27.25
2023-02-16T03:35:02.100Z,27.23
2023-02-16T03:37:28.960Z,27.95
2023-02-16T03:40:14.190Z,30.85
2023-02-16T03:42:47.832Z,26.85
2023-02-16T03:45:14.582Z,27.95
2023-02-16T03:47:41.364Z,28.25
2023-02-16T03:50:08.541Z,29.10
2023-02-16T03:52:35.348Z,27.83
2023-02-16T03:55:02.157Z,28.27
2023-02-16T03:57:28.921Z,29.13
2023-02-16T03:59:59.191Z,29.52
2023-02-16T04:02:30.082Z,29.17
2023-02-16T04:04:57.006Z,28.65
2023-02-16T04:07:23.869Z,27.67
2023-02-16T04:09:50.921Z,29.10
2023-02-16T04:12:36.345Z,28.13
2023-02-16T04:15:15.342Z,27.85
2023-02-16T04:17:42.475Z,26.63
2023-02-16T04:20:12.051Z,29.10
2023-02-16T04:22:39.190Z,27.75
2023-02-16T04:25:06.644Z,27.20
2023-02-16T04:27:33.841Z,27.98
2023-02-16T04:30:00.759Z,29.90
2023-02-16T04:32:27.631Z,26.50
2023-02-16T04:34:54.430Z,27.75
2023-02-16T04:37:21.342Z,30.25
2023-02-16T04:39:48.136Z,29.25
2023-02-16T04:42:14.917Z,27.38
2023-02-16T04:44:41.802Z,27.98
2023-02-16T04:47:08.663Z,28.17
2023-02-16T04:49:35.456Z,29.13
2023-02-16T04:52:03.986Z,29.08
2023-02-16T04:54:32.176Z,29.92
2023-02-16T04:56:59.595Z,28.38
2023-02-16T04:59:26.602Z,29.55
2023-02-16T05:01:53.496Z,28.98
2023-02-16T05:04:20.445Z,29.98
2023-02-16T05:06:47.414Z,29.63
2023-02-16T05:09:14.189Z,28.65
2023-02-16T05:11:59.560Z,28.00
2023-02-16T05:14:44.942Z,28.52
2023-02-16T05:17:13.844Z,28.92
2023-02-16T05:19:42.232Z,27.73
2023-02-16T05:22:10.300Z,30.75
2023-02-16T05:24:37.922Z,29.63
2023-02-16T05:27:06.459Z,28.20
2023-02-16T05:29:33.569Z,27.75
2023-02-16T05:32:01.472Z,28.67
2023-02-16T05:34:30.264Z,29.15
2023-02-16T05:36:57.087Z,26.67
2023-02-16T05:39:24.021Z,30.67
2023-02-16T05:41:50.918Z,26.70
2023-02-16T05:44:17.785Z,30.00
2023-02-16T05:46:46.460Z,28.27
2023-02-16T05:49:14.636Z,28.48
2023-02-16T05:51:42.118Z,27.20
2023-02-16T05:54:10.791Z,27.00
2023-02-16T05:56:37.661Z,28.08
2023-02-16T05:59:04.472Z,28.33
2023-02-16T06:01:31.489Z,29.33
2023-02-16T06:03:58.338Z,27.60
2023-02-16T06:06:25.398Z,26.65
2023-02-16T06:08:52.251Z,29.00
2023-02-16T06:11:37.308Z,28.23
2023-02-16T06:14:10.621Z,29.20
2023-02-16T06:16:39.569Z,27.13
2023-02-16T06:19:07.288Z,26.35
2023-02-16T06:21:35.070Z,28.80
2023-02-16T06:24:02.148Z,28.05
2023-02-16T06:26:29.096Z,28.83
2023-02-16T06:28:56.807Z,28.33
2023-02-16T06:31:25.353Z,28.25
2023-02-16T06:33:53.032Z,28.85
2023-02-16T06:36:20.270Z,26.70
2023-02-16T06:38:47.531Z,27.15
2023-02-16T06:41:31.186Z,29.55
2023-02-16T06:44:02.092Z,30.13
2023-02-16T06:46:28.971Z,29.20
2023-02-16T06:48:55.985Z,28.55
2023-02-16T06:51:23.295Z,28.10
2023-02-16T06:53:50.100Z,28.75
2023-02-16T06:56:16.917Z,27.92
2023-02-16T06:58:43.823Z,28.63
2023-02-16T07:01:10.862Z,29.10
2023-02-16T07:03:37.958Z,29.13
2023-02-16T07:06:05.022Z,29.67
2023-02-16T07:08:31.831Z,27.85
2023-02-16T07:10:58.603Z,28.45
2023-02-16T07:13:25.401Z,29.30
2023-02-16T07:15:52.313Z,28.50
2023-02-16T07:18:19.080Z,29.27
2023-02-16T07:20:45.864Z,29.13
2023-02-16T07:23:12.586Z,28.88
2023-02-16T07:25:39.395Z,28.27
2023-02-16T07:28:06.181Z,28.88
2023-02-16T07:30:33.013Z,26.75
2023-02-16T07:32:59.918Z,32.35
2023-02-16T07:35:26.947Z,28.27
2023-02-16T07:37:54.012Z,28.52
2023-02-16T07:40:20.852Z,28.90
2023-02-16T07:42:47.617Z,29.25
2023-02-16T07:45:14.380Z,30.00
2023-02-16T07:47:41.099Z,29.15
2023-02-16T07:50:08.339Z,28.88
2023-02-16T07:52:35.381Z,30.38
2023-02-16T07:55:02.158Z,29.80
2023-02-16T07:57:29.300Z,29.35
2023-02-16T07:59:56.616Z,29.33
2023-02-16T08:02:24.436Z,29.65
2023-02-16T08:04:52.890Z,29.45
2023-02-16T08:07:20.793Z,28.80
2023-02-16T08:09:47.714Z,29.35
2023-02-16T08:12:16.752Z,28.30
2023-02-16T08:14:44.504Z,28.45
2023-02-16T08:17:11.367Z,27.67
2023-02-16T08:19:38.324Z,29.70
2023-02-16T08:22:06.749Z,31.63
2023-02-16T08:24:36.333Z,29.85
2023-02-16T08:27:04.879Z,29.65
2023-02-16T08:29:32.852Z,29.55
2023-02-16T08:32:00.521Z,30.23
2023-02-16T08:34:27.862Z,29.77
2023-02-16T08:36:56.998Z,27.95
2023-02-16T08:39:26.103Z,29.08
2023-02-16T08:41:54.222Z,29.73
2023-02-16T08:44:23.635Z,28.08
2023-02-16T08:46:52.322Z,26.23
2023-02-16T08:49:21.955Z,28.52
2023-02-16T08:51:52.213Z,29.25
2023-02-16T08:54:30.027Z,30.48
2023-02-16T08:56:59.001Z,28.60
2023-02-16T08:59:28.795Z,26.02
2023-02-16T09:01:59.308Z,29.27
2023-02-16T09:04:29.145Z,25.98
2023-02-16T09:06:58.407Z,26.75
2023-02-16T09:09:26.533Z,26.27
2023-02-16T09:11:53.849Z,26.52
2023-02-16T09:14:21.627Z,27.00
2023-02-16T09:16:48.845Z,27.52
2023-02-16T09:19:19.312Z,27.30
2023-02-16T09:21:47.381Z,27.45
2023-02-16T09:24:16.025Z,26.90
2023-02-16T09:26:43.134Z,25.65
2023-02-16T09:29:12.512Z,25.35
2023-02-16T09:31:39.745Z,25.80
2023-02-16T09:34:17.745Z,25.17
2023-02-16T09:36:44.944Z,25.80
2023-02-16T09:39:12.350Z,25.08
2023-02-16T09:41:41.894Z,25.40
2023-02-16T09:44:20.735Z,23.45
2023-02-16T09:46:49.315Z,24.63
2023-02-16T09:49:38.852Z,26.60
2023-02-16T09:52:08.754Z,23.98
2023-02-16T09:54:45.380Z,24.60
2023-02-16T09:57:32.369Z,24.25
2023-02-16T10:00:06.187Z,24.27
2023-02-16T10:02:42.245Z,25.30
2023-02-16T10:05:22.812Z,24.20
2023-02-16T10:08:03.687Z,23.60
2023-02-16T10:10:47.224Z,22.48
2023-02-16T10:13:21.054Z,23.45
2023-02-16T10:15:49.840Z,23.95
2023-02-16T10:18:26.182Z,23.73
2023-02-16T10:20:56.574Z,23.58
2023-02-16T10:23:47.516Z,25.58
2023-02-16T10:26:17.976Z,22.45
2023-02-16T10:28:55.046Z,24.83
2023-02-16T10:31:24.542Z,25.30
2023-02-16T10:33:51.669Z,26.75
2023-02-16T10:36:26.867Z,24.55
2023-02-16T10:39:08.289Z,23.65
2023-02-16T10:41:44.204Z,22.77
2023-02-16T10:44:21.834Z,26.00
2023-02-16T10:46:59.094Z,25.83
2023-02-16T10:49:27.051Z,22.75
2023-02-16T10:51:56.731Z,22.80
2023-02-16T10:54:28.170Z,23.55
2023-02-16T10:57:01.240Z,22.38
2023-02-16T10:59:45.740Z,23.15
2023-02-16T11:02:28.909Z,22.98
2023-02-16T11:04:57.420Z,23.95
2023-02-16T11:07:26.947Z,24.23
2023-02-16T11:09:56.281Z,24.42
2023-02-16T11:12:26.883Z,22.75
2023-02-16T11:15:22.682Z,23.60
2023-02-16T11:18:08.181Z,22.55
2023-02-16T11:20:47.610Z,21.23
2023-02-16T11:23:17.449Z,21.73
2023-02-16T11:26:00.860Z,21.60
2023-02-16T11:28:33.847Z,22.75
2023-02-16T11:31:05.974Z,22.05
2023-02-16T11:33:34.808Z,22.27
2023-02-16T11:36:05.307Z,21.45
2023-02-16T11:38:35.108Z,20.92
2023-02-16T11:41:05.141Z,20.70
2023-02-16T11:43:37.702Z,23.73
2023-02-16T11:46:18.483Z,23.17
2023-02-16T11:48:46.304Z,23.58
2023-02-16T11:51:19.273Z,23.40
2023-02-16T11:53:58.636Z,21.70
2023-02-16T11:56:29.284Z,21.67
2023-02-16T11:59:12.747Z,21.25
2023-02-16T12:02:18.893Z,20.92
2023-02-16T12:04:57.842Z,23.70
2023-02-16T12:07:37.025Z,23.88
2023-02-16T12:10:18.723Z,23.60
2023-02-16T12:13:03.974Z,23.58
2023-02-16T12:15:58.818Z,22.55
2023-02-16T12:18:50.675Z,22.20
2023-02-16T12:21:32.965Z,22.92
2023-02-16T12:24:05.580Z,22.40
2023-02-16T12:26:52.836Z,23.00
2023-02-16T12:29:46.265Z,23.50
2023-02-16T12:32:34.707Z,21.33
2023-02-16T12:35:23.736Z,20.48
2023-02-16T12:38:11.606Z,20.63
2023-02-16T12:41:07.173Z,21.23
2023-02-16T12:43:46.934Z,23.55
2023-02-16T12:46:17.616Z,19.13
2023-02-16T12:48:53.928Z,21.50
2023-02-16T12:51:43.529Z,19.95
2023-02-16T12:54:15.237Z,18.92
2023-02-16T12:56:57.977Z,20.42
2023-02-16T12:59:41.882Z,18.77
2023-02-16T13:02:18.089Z,18.75
2023-02-16T13:05:12.573Z,18.75
2023-02-16T13:07:43.143Z,17.90
2023-02-16T13:10:47.616Z,19.30
2023-02-16T13:13:21.618Z,19.60
2023-02-16T13:16:14.935Z,18.20
2023-02-16T13:18:53.439Z,17.77
2023-02-16T13:21:49.078Z,19.13
2023-02-16T13:24:39.680Z,19.38
2023-02-16T13:27:18.314Z,20.02
2023-02-16T13:29:54.182Z,18.98
2023-02-16T13:32:59.016Z,19.30
2023-02-16T13:36:00.915Z,18.27
2023-02-16T13:39:06.137Z,19.30
2023-02-16T13:41:55.530Z,20.27
2023-02-16T13:44:46.849Z,19.30
2023-02-16T13:47:18.102Z,19.17
2023-02-16T13:49:46.475Z,19.60
2023-02-16T13:52:34.571Z,22.27
2023-02-16T13:55:04.106Z,20.27
2023-02-16T13:57:50.720Z,22.05
2023-02-16T14:00:30.030Z,22.85
2023-02-16T14:03:01.122Z,19.55
2023-02-16T14:05:40.464Z,20.70
2023-02-16T14:08:12.587Z,21.50
2023-02-16T14:10:54.332Z,19.77
2023-02-16T14:13:26.556Z,21.00
2023-02-16T14:15:55.656Z,22.42
2023-02-16T14:18:44.919Z,21.17
2023-02-16T14:21:26.989Z,22.88
2023-02-16T14:23:59.297Z,21.50
2023-02-16T14:26:27.300Z,22.45
2023-02-16T14:29:00.112Z,22.95
2023-02-16T14:31:28.922Z,22.33
2023-02-16T14:34:19.953Z,24.55
2023-02-16T14:37:09.505Z,22.40
2023-02-16T14:39:58.405Z,23.83
2023-02-16T14:42:31.259Z,22.85
2023-02-16T14:45:34.505Z,23.77
2023-02-16T14:48:17.757Z,23.58
2023-02-16T14:51:23.019Z,23.70
2023-02-16T14:54:08.917Z,23.38
2023-02-16T14:56:42.041Z,21.80
2023-02-16T14:59:17.385Z,23.35
2023-02-16T15:01:45.840Z,25.60
2023-02-16T15:04:12.908Z,25.33
2023-02-16T15:06:47.696Z,24.60
2023-02-16T15:09:20.689Z,25.92
2023-02-16T15:12:11.792Z,24.70
2023-02-16T15:14:48.418Z,21.77
2023-02-16T15:17:36.647Z,23.50
2023-02-16T15:20:08.704Z,22.40
2023-02-16T15:22:38.845Z,24.55
2023-02-16T15:25:19.625Z,23.27
2023-02-16T15:28:05.455Z,23.10
2023-02-16T15:30:39.172Z,22.90
2023-02-16T15:33:14.155Z,24.13
2023-02-16T15:35:43.656Z,23.05
2023-02-16T15:38:24.605Z,23.05
2023-02-16T15:40:57.370Z,24.00
2023-02-16T15:43:31.064Z,24.48
2023-02-16T15:45:59.751Z,24.00
2023-02-16T15:48:29.527Z,22.88
2023-02-16T15:51:20.064Z,24.58
2023-02-16T15:53:49.092Z,23.05
2023-02-16T15:56:46.046Z,22.83
2023-02-16T15:59:35.403Z,23.83
2023-02-16T16:02:22.882Z,20.17
2023-02-16T16:04:59.072Z,23.10
2023-02-16T16:07:29.392Z,21.77
2023-02-16T16:09:57.846Z,23.35
2023-02-16T16:12:25.775Z,22.75
2023-02-16T16:15:01.259Z,22.55
2023-02-16T16:17:31.040Z,22.63
2023-02-16T16:20:17.502Z,24.60
2023-02-16T16:22:45.206Z,22.85
2023-02-16T16:25:33.832Z,23.00
2023-02-16T16:28:02.154Z,22.75
2023-02-16T16:30:34.154Z,22.83
2023-02-16T16:33:06.236Z,25.45
2023-02-16T16:35:48.785Z,24.60
2023-02-16T16:38:28.407Z,22.35
2023-02-16T16:40:58.466Z,23.65
2023-02-16T16:43:34.974Z,23.52
2023-02-16T16:46:19.156Z,25.50
2023-02-16T16:48:48.526Z,24.02
2023-02-16T16:51:21.192Z,24.13
2023-02-16T16:53:52.923Z,25.80
2023-02-16T16:56:21.079Z,24.65
2023-02-16T16:58:52.228Z,24.17
2023-02-16T17:01:20.186Z,25.33
2023-02-16T17:03:47.364Z,26.42
2023-02-16T17:06:14.627Z,24.83
2023-02-16T17:08:41.999Z,26.20
2023-02-16T17:11:23.915Z,26.33
2023-02-16T17:13:51.987Z,26.88
2023-02-16T17:16:28.637Z,26.67
2023-02-16T17:18:55.900Z,25.05
2023-02-16T17:21:23.153Z,26.55
2023-02-16T17:23:53.304Z,23.65
2023-02-16T17:26:21.802Z,26.38
2023-02-16T17:28:48.748Z,25.40
2023-02-16T17:31:16.166Z,25.10
2023-02-16T17:33:43.029Z,23.73
2023-02-16T17:36:14.275Z,24.85
2023-02-16T17:38:41.720Z,25.95
2023-02-16T17:41:16.700Z,22.48
2023-02-16T17:43:43.446Z,24.50
2023-02-16T17:46:10.271Z,24.08
2023-02-16T17:48:37.295Z,24.77
2023-02-16T17:51:04.967Z,23.77
2023-02-16T17:53:31.740Z,25.17
2023-02-16T17:55:58.560Z,25.95
2023-02-16T17:58:25.968Z,24.13
2023-02-16T18:00:53.527Z,24.60
2023-02-16T18:03:21.821Z,23.80
2023-02-16T18:05:49.485Z,22.42
2023-02-16T18:08:16.295Z,24.75
2023-02-16T18:10:49.821Z,24.05
2023-02-16T18:13:17.310Z,23.13
2023-02-16T18:15:47.725Z,24.75
2023-02-16T18:18:17.177Z,26.45
2023-02-16T18:20:44.631Z,23.88
2023-02-16T18:23:11.418Z,24.50
2023-02-16T18:25:39.300Z,25.25
2023-02-16T18:28:06.176Z,24.75
2023-02-16T18:30:33.379Z,24.35
2023-02-16T18:33:00.254Z,25.27
2023-02-16T18:35:27.077Z,25.05
2023-02-16T18:37:53.829Z,25.50
2023-02-16T18:40:20.714Z,25.33
2023-02-16T18:42:48.102Z,25.55
2023-02-16T18:45:15.025Z,23.45
2023-02-16T18:47:44.341Z,23.05
2023-02-16T18:50:12.488Z,22.65
2023-02-16T18:52:42.459Z,24.45
2023-02-16T18:55:10.522Z,23.45
2023-02-16T18:57:37.558Z,23.70
2023-02-16T19:00:10.907Z,25.40
2023-02-16T19:02:37.925Z,24.10
2023-02-16T19:05:06.929Z,23.52
2023-02-16T19:07:33.848Z,23.98
2023-02-16T19:10:00.694Z,24.40
2023-02-16T19:12:27.470Z,24.65
2023-02-16T19:14:54.215Z,24.25
2023-02-16T19:17:21.073Z,22.77
2023-02-16T19:19:47.863Z,24.48
2023-02-16T19:22:14.655Z,25.67
2023-02-16T19:24:41.497Z,23.60
2023-02-16T19:27:08.312Z,22.70
2023-02-16T19:29:35.581Z,23.13
2023-02-16T19:32:02.301Z,24.38
2023-02-16T19:34:29.081Z,24.40
2023-02-16T19:36:55.970Z,22.13
2023-02-16T19:39:22.726Z,24.13
2023-02-16T19:41:49.687Z,24.83
2023-02-16T19:44:17.325Z,23.55
2023-02-16T19:46:44.550Z,23.27
2023-02-16T19:49:13.859Z,23.10
2023-02-16T19:51:40.854Z,24.70
2023-02-16T19:54:07.939Z,23.67
2023-02-16T19:56:36.388Z,23.40
2023-02-16T19:59:03.203Z,24.90
2023-02-16T20:01:29.976Z,23.52
2023-02-16T20:03:57.907Z,25.02
2023-02-16T20:06:33.779Z,25.33
2023-02-16T20:09:01.209Z,22.90
2023-02-16T20:11:29.620Z,25.05
2023-02-16T20:13:59.679Z,24.60
2023-02-16T20:16:27.107Z,26.10
2023-02-16T20:18:55.036Z,25.05
2023-02-16T20:21:24.437Z,23.65
2023-02-16T20:23:56.795Z,24.88
2023-02-16T20:26:34.345Z,25.13
2023-02-16T20:29:02.275Z,24.70
2023-02-16T20:31:35.505Z,25.52
2023-02-16T20:34:02.957Z,24.75
2023-02-16T20:36:29.940Z,24.15
2023-02-16T20:38:56.780Z,24.77
2023-02-16T20:41:23.654Z,26.00
2023-02-16T20:43:51.033Z,23.48
2023-02-16T20:46:18.083Z,25.70
2023-02-16T20:48:45.434Z,25.42
2023-02-16T20:51:13.818Z,24.30
2023-02-16T20:53:41.078Z,25.02
2023-02-16T20:56:14.691Z,24.40
2023-02-16T20:58:42.853Z,24.95
2023-02-16T21:01:30.777Z,27.10
2023-02-16T21:03:58.956Z,27.20
2023-02-16T21:06:26.911Z,25.30
2023-02-16T21:08:53.782Z,25.35
2023-02-16T21:11:21.195Z,26.30
2023-02-16T21:13:48.461Z,25.27
2023-02-16T21:16:15.546Z,24.58
2023-02-16T21:18:42.406Z,26.65
2023-02-16T21:21:10.037Z,25.15
2023-02-16T21:23:36.869Z,25.55
2023-02-16T21:26:05.648Z,23.70
2023-02-16T21:28:33.216Z,25.70
2023-02-16T21:31:06.325Z,24.70
2023-02-16T21:33:33.697Z,24.63
2023-02-16T21:36:08.984Z,26.90
2023-02-16T21:38:36.774Z,25.65
2023-02-16T21:41:24.492Z,24.20
2023-02-16T21:44:01.580Z,26.67
2023-02-16T21:46:33.989Z,24.50
2023-02-16T21:49:00.817Z,25.05
2023-02-16T21:51:34.422Z,25.08
2023-02-16T21:54:01.393Z,25.98
2023-02-16T21:56:35.934Z,26.42
2023-02-16T21:59:05.099Z,24.80
2023-02-16T22:01:34.645Z,25.88
2023-02-16T22:04:02.369Z,26.02
2023-02-16T22:06:34.035Z,26.83
2023-02-16T22:09:02.120Z,26.58
2023-02-16T22:11:29.415Z,26.15
2023-02-16T22:13:58.714Z,26.67
2023-02-16T22:16:27.170Z,25.85
2023-02-16T22:19:02.032Z,25.55
2023-02-16T22:21:29.698Z,27.13
2023-02-16T22:23:57.643Z,28.35
2023-02-16T22:26:26.944Z,26.38
2023-02-16T22:28:54.156Z,25.85
2023-02-16T22:31:23.430Z,25.67
2023-02-16T22:33:58.185Z,26.83
2023-02-16T22:36:25.478Z,25.20
2023-02-16T22:38:53.027Z,25.40
2023-02-16T22:41:20.918Z,25.80
2023-02-16T22:43:47.935Z,26.27
2023-02-16T22:46:16.644Z,25.65
2023-02-16T22:48:44.280Z,25.35
2023-02-16T22:51:13.577Z,24.75
2023-02-16T22:53:41.088Z,25.60
2023-02-16T22:56:09.614Z,26.95
2023-02-16T22:58:36.836Z,27.90
2023-02-16T23:01:04.386Z,26.77
2023-02-16T23:03:31.936Z,27.15
2023-02-16T23:05:58.849Z,27.55
2023-02-16T23:08:26.069Z,24.42
2023-02-16T23:11:01.579Z,25.98
2023-02-16T23:13:31.265Z,27.05
2023-02-16T23:16:04.331Z,27.35
2023-02-16T23:18:31.396Z,26.90
2023-02-16T23:21:05.521Z,27.52
2023-02-16T23:23:32.369Z,27.80
2023-02-16T23:25:59.204Z,26.25
2023-02-16T23:28:25.926Z,28.30
2023-02-16T23:30:56.657Z,26.88
2023-02-16T23:33:23.653Z,26.10
2023-02-16T23:35:50.591Z,26.15
2023-02-16T23:38:17.418Z,26.63
2023-02-16T23:40:44.252Z,25.92
2023-02-16T23:43:11.014Z,27.10
2023-02-16T23:45:38.354Z,27.17
2023-02-16T23:48:05.221Z,26.73
2023-02-16T23:50:32.006Z,25.92
2023-02-16T23:52:58.733Z,26.65
2023-02-16T23:55:25.502Z,28.60
2023-02-16T23:57:52.236Z,26.05
